Time;durP1;ratioP1;P1;durP2;ratioP2;P2;SDS_P1;SDS_P2;PMS_P1;PMS_P2;Temp;Humidity;BMP_temperature;BMP_pressure;BME280_temperature;BME280_humidity;BME280_pressure;Samples;Min_cycle;Max_cycle;Signal;HPM_P1;HPM_P2
2022/11/11 00:02:17;;;;;;;3.78;2.75;;;21.10;99.90;;;;;;6184837;28;88031;-64
2022/11/11 00:05:20;;;;;;;2.88;2.40;;;21.10;99.90;;;;;;6183782;28;89393;-64
2022/11/11 00:08:22;;;;;;;2.83;2.30;;;21.10;99.90;;;;;;6184055;28;88655;-64
2022/11/11 00:11:24;;;;;;;2.50;2.30;;;21.10;99.90;;;;;;6184216;28;89458;-64
2022/11/11 00:14:28;;;;;;;2.63;2.42;;;21.10;99.90;;;;;;6183745;28;89237;-63
2022/11/11 00:27:40;;;;;;;2.90;2.45;;;21.10;99.90;;;;;;6173908;28;87364;-64
2022/11/11 00:30:44;;;;;;;2.58;2.30;;;21.10;99.90;;;;;;6182944;28;89159;-64
2022/11/11 00:33:46;;;;;;;2.60;2.40;;;21.10;99.90;;;;;;6183103;28;87848;-64
2022/11/11 00:36:48;;;;;;;2.70;2.42;;;21.10;99.90;;;;;;6183872;28;89225;-64
2022/11/11 00:39:50;;;;;;;2.75;2.40;;;21.00;99.90;;;;;;6184166;28;88552;-64
2022/11/11 00:42:52;;;;;;;2.38;2.17;;;21.00;99.90;;;;;;6183668;28;89217;-64
2022/11/11 00:50:57;;;;;;;2.53;2.33;;;21.00;99.90;;;;;;6183788;28;88196;-64
2022/11/11 00:52:38;;;;;;;2.40;2.20;;;21.00;99.90;;;;;;6183325;28;87371;-64
2022/11/11 00:55:40;;;;;;;2.60;2.40;;;21.00;99.90;;;;;;6183275;28;89547;-64
2022/11/11 00:58:42;;;;;;;2.25;2.05;;;21.00;99.90;;;;;;6184024;28;89427;-64
2022/11/11 01:01:46;;;;;;;3.60;2.58;;;21.00;99.90;;;;;;6183630;28;89084;-64
2022/11/11 01:04:48;;;;;;;2.50;2.30;;;21.00;99.90;;;;;;6184181;28;87755;-64
2022/11/11 01:07:50;;;;;;;2.40;2.20;;;21.00;99.90;;;;;;6182765;28;89326;-64
2022/11/11 01:10:52;;;;;;;2.97;2.30;;;21.00;99.90;;;;;;6183701;28;88374;-64
2022/11/11 01:13:54;;;;;;;3.00;2.70;;;20.90;99.90;;;;;;6181680;28;88793;-64
2022/11/11 01:16:58;;;;;;;2.30;2.10;;;21.00;99.90;;;;;;6182633;28;89122;-64
2022/11/11 01:20:00;;;;;;;2.35;2.15;;;21.00;99.90;;;;;;6170637;28;90118;-64
2022/11/11 01:23:02;;;;;;;2.90;2.35;;;20.90;99.90;;;;;;6183969;28;89258;-64
2022/11/11 01:26:05;;;;;;;2.30;2.10;;;20.90;99.90;;;;;;6182478;28;89231;-64
2022/11/11 01:29:07;;;;;;;3.05;2.42;;;21.00;99.90;;;;;;6182623;28;88395;-64
2022/11/11 01:32:11;;;;;;;2.33;2.13;;;20.90;99.90;;;;;;6181182;28;89198;-64
2022/11/11 01:35:13;;;;;;;2.30;2.10;;;20.90;99.90;;;;;;6182460;28;89093;-63
2022/11/11 01:38:15;;;;;;;2.50;2.30;;;20.90;99.90;;;;;;6182902;28;89130;-63
2022/11/11 01:44:45;;;;;;;2.45;2.25;;;20.90;99.90;;;;;;6179572;28;88820;-64
2022/11/11 01:51:15;;;;;;;2.40;2.20;;;20.90;99.90;;;;;;6182152;28;88277;-64
2022/11/11 01:54:21;;;;;;;2.60;2.40;;;20.90;99.90;;;;;;6183154;28;89272;-64
2022/11/11 01:57:28;;;;;;;2.58;2.38;;;20.90;99.90;;;;;;6181506;28;89155;-64
2022/11/11 02:00:31;;;;;;;2.28;2.08;;;20.90;99.90;;;;;;6181828;28;89283;-63
2022/11/11 02:03:40;;;;;;;3.50;2.58;;;20.90;99.90;;;;;;6179523;28;89171;-64
2022/11/11 02:06:41;;;;;;;2.40;2.20;;;20.90;99.90;;;;;;6182895;28;89536;-64
2022/11/11 02:09:47;;;;;;;2.33;2.13;;;20.90;99.90;;;;;;6181618;28;89030;-63
2022/11/11 02:16:20;;;;;;;2.47;2.25;;;20.90;99.90;;;;;;6057339;28;87522;-63
2022/11/11 02:19:32;;;;;;;2.53;2.33;;;20.80;99.90;;;;;;6179544;28;90628;-63
2022/11/11 02:22:42;;;;;;;2.60;2.40;;;20.90;99.90;;;;;;6180996;28;90219;-64
2022/11/11 02:25:49;;;;;;;2.40;2.20;;;20.90;99.90;;;;;;6170794;28;88060;-64
2022/11/11 02:28:53;;;;;;;2.90;2.58;;;20.80;99.90;;;;;;6181221;28;89101;-63
2022/11/11 02:31:56;;;;;;;2.83;2.50;;;20.80;99.90;;;;;;6182994;28;89237;-63
2022/11/11 02:34:58;;;;;;;2.15;1.98;;;20.80;99.90;;;;;;6181571;28;89324;-63
2022/11/11 02:38:06;;;;;;;2.40;2.20;;;20.80;99.90;;;;;;6181975;28;89637;-63
2022/11/11 02:44:28;;;;;;;2.35;2.15;;;20.80;99.90;;;;;;6179423;28;87198;-63
2022/11/11 02:47:30;;;;;;;4.28;2.72;;;20.80;99.90;;;;;;6180110;28;89267;-64
2022/11/11 02:50:33;;;;;;;2.17;1.98;;;20.80;99.90;;;;;;6178304;28;90320;-64
2022/11/11 02:53:35;;;;;;;2.42;2.20;;;20.80;99.90;;;;;;6179739;28;90114;-64
2022/11/11 02:59:59;;;;;;;2.42;2.20;;;20.80;99.90;;;;;;6180555;28;87191;-64
2022/11/11 03:03:01;;;;;;;2.22;2.03;;;20.80;99.90;;;;;;6181483;28;89069;-64
2022/11/11 03:06:04;;;;;;;2.40;2.10;;;20.80;99.90;;;;;;6181724;28;89218;-64
2022/11/11 03:09:06;;;;;;;2.20;2.00;;;20.80;99.90;;;;;;6180552;28;88417;-64
2022/11/11 03:12:09;;;;;;;2.40;2.20;;;20.70;99.90;;;;;;6180387;28;89106;-64
2022/11/11 03:15:11;;;;;;;2.15;1.98;;;20.80;99.90;;;;;;6182339;28;88438;-64
2022/11/11 03:18:12;;;;;;;2.22;2.03;;;20.80;99.90;;;;;;6179435;28;88187;-64
2022/11/11 03:21:14;;;;;;;2.30;2.10;;;20.80;99.90;;;;;;6181407;28;89066;-64
2022/11/11 03:24:16;;;;;;;2.30;2.10;;;20.80;99.90;;;;;;6180974;28;90036;-64
2022/11/11 03:27:19;;;;;;;2.13;1.92;;;20.80;99.90;;;;;;6180740;28;89279;-64
2022/11/11 03:30:21;;;;;;;2.17;1.98;;;20.80;99.90;;;;;;6181680;28;88350;-63
2022/11/11 03:33:23;;;;;;;2.35;2.15;;;20.70;99.90;;;;;;6180042;28;89214;-64
2022/11/11 03:38:14;;;;;;;2.55;2.35;;;20.70;99.90;;;;;;6180561;28;88799;-64
2022/11/11 03:39:46;;;;;;;2.00;1.90;;;20.70;99.90;;;;;;6180790;28;88515;-64
2022/11/11 03:42:49;;;;;;;2.80;2.20;;;20.70;99.90;;;;;;6181104;28;88614;-64
2022/11/11 03:45:52;;;;;;;2.22;2.03;;;20.70;99.90;;;;;;6179902;28;88612;-64
2022/11/11 03:48:54;;;;;;;2.45;2.17;;;20.70;99.90;;;;;;6179514;28;89712;-64
2022/11/11 03:51:56;;;;;;;2.20;2.00;;;20.70;99.90;;;;;;6179941;28;89126;-64
2022/11/11 03:54:58;;;;;;;2.20;2.00;;;20.70;99.90;;;;;;6180020;28;90487;-64
2022/11/11 03:58:02;;;;;;;2.10;1.90;;;20.70;99.90;;;;;;6181039;28;89346;-64
2022/11/11 04:10:21;;;;;;;1.83;1.73;;;20.70;99.90;;;;;;6180225;28;89535;-64
2022/11/11 04:11:08;;;;;;;2.38;2.08;;;20.70;99.90;;;;;;6172011;28;87388;-67
2022/11/11 04:17:33;;;;;;;2.45;2.15;;;20.70;99.90;;;;;;6174598;28;87588;-66
2022/11/11 04:23:54;;;;;;;1.98;1.88;;;20.70;99.90;;;;;;6172828;28;87285;-63
2022/11/11 04:26:57;;;;;;;2.10;1.90;;;20.70;99.90;;;;;;6182162;28;90054;-64
2022/11/11 04:30:00;;;;;;;2.17;1.90;;;20.60;99.90;;;;;;6183025;28;89191;-64
2022/11/11 04:33:02;;;;;;;2.10;1.90;;;20.70;99.90;;;;;;6182736;28;89156;-63
2022/11/11 04:36:04;;;;;;;2.00;1.90;;;20.60;99.90;;;;;;6184360;28;89306;-63
2022/11/11 04:42:28;;;;;;;2.10;1.90;;;20.60;99.90;;;;;;6184401;28;87332;-64
2022/11/11 04:45:30;;;;;;;1.98;1.83;;;20.60;99.90;;;;;;6183337;28;88343;-64
2022/11/11 04:48:32;;;;;;;1.80;1.70;;;20.60;99.90;;;;;;6184306;28;88610;-63
2022/11/11 04:58:10;;;;;;;1.98;1.77;;;20.70;99.90;;;;;;6184675;28;88102;-64
2022/11/11 05:03:14;;;;;;;1.85;1.75;;;20.70;99.90;;;;;;6181473;28;89032;-63
2022/11/11 05:04:35;;;;;;;2.13;1.92;;;20.70;99.90;;;;;;6182538;28;87838;-64
2022/11/11 05:10:56;;;;;;;2.08;1.88;;;20.70;99.90;;;;;;6183481;28;87650;-64
2022/11/11 05:27:20;;;;;;;2.10;1.88;;;20.80;99.90;;;;;;6182153;28;87859;-64
2022/11/11 05:30:23;;;;;;;1.70;1.60;;;20.90;99.90;;;;;;6181962;28;90027;-63
2022/11/11 05:33:26;;;;;;;1.90;1.80;;;20.90;99.90;;;;;;6171137;28;89246;-64
2022/11/11 05:36:28;;;;;;;1.85;1.60;;;20.90;99.90;;;;;;6182826;28;89367;-63
2022/11/11 05:39:30;;;;;;;2.03;1.77;;;20.90;99.90;;;;;;6182574;28;89289;-63
2022/11/11 05:42:32;;;;;;;2.03;1.80;;;20.90;99.90;;;;;;6182863;28;89217;-63
2022/11/11 05:45:34;;;;;;;1.95;1.75;;;20.90;99.90;;;;;;6183010;28;89248;-63
2022/11/11 05:49:13;;;;;;;1.63;1.48;;;20.90;99.90;;;;;;6182922;28;89268;-64
2022/11/11 05:52:00;;;;;;;2.15;1.85;;;20.90;99.90;;;;;;6182657;28;87882;-64
2022/11/11 05:55:02;;;;;;;2.08;1.85;;;20.90;99.90;;;;;;6181575;28;89218;-64
2022/11/11 05:58:04;;;;;;;1.52;1.42;;;20.90;99.90;;;;;;6182567;28;89530;-64
2022/11/11 06:01:06;;;;;;;1.80;1.70;;;20.90;99.90;;;;;;6182128;28;90303;-63
2022/11/11 06:04:10;;;;;;;1.80;1.70;;;20.90;99.80;;;;;;6181866;28;89424;-64
2022/11/11 06:07:12;;;;;;;1.80;1.70;;;21.00;99.80;;;;;;6182135;28;89201;-64
2022/11/11 06:10:32;;;;;;;1.80;1.70;;;21.00;99.80;;;;;;6182550;28;89048;-64
2022/11/11 06:13:34;;;;;;;1.70;1.60;;;21.00;99.80;;;;;;6182540;28;89169;-64
2022/11/11 06:16:36;;;;;;;1.70;1.60;;;21.00;99.80;;;;;;6180588;28;89097;-63
2022/11/11 06:19:40;;;;;;;1.90;1.80;;;20.90;99.80;;;;;;6182263;28;89625;-64
2022/11/11 06:22:57;;;;;;;1.75;1.65;;;21.00;99.90;;;;;;6182361;28;88525;-64
2022/11/11 06:26:15;;;;;;;1.95;1.63;;;21.00;99.90;;;;;;6181741;28;88426;-64
2022/11/11 06:29:17;;;;;;;1.60;1.42;;;21.00;99.90;;;;;;6181348;28;89139;-63
2022/11/11 06:32:19;;;;;;;2.78;1.90;;;21.00;99.80;;;;;;6180507;28;90008;-64
2022/11/11 06:35:22;;;;;;;2.63;1.92;;;21.00;99.80;;;;;;6181990;28;89164;-64
2022/11/11 06:38:24;;;;;;;2.13;1.70;;;21.00;99.70;;;;;;6181752;28;87896;-63
2022/11/11 06:41:26;;;;;;;1.90;1.70;;;21.00;99.70;;;;;;6168613;28;89123;-63
2022/11/11 06:44:28;;;;;;;1.92;1.75;;;21.00;99.60;;;;;;6181321;28;88985;-63
2022/11/11 06:47:30;;;;;;;1.60;1.50;;;21.00;99.50;;;;;;6180224;28;89393;-64
2022/11/11 06:50:34;;;;;;;1.60;1.50;;;21.00;99.50;;;;;;6179825;28;89275;-64
2022/11/11 06:53:36;;;;;;;1.58;1.48;;;21.00;99.50;;;;;;6181414;28;88636;-64
2022/11/11 06:56:38;;;;;;;1.60;1.45;;;21.10;99.50;;;;;;6180979;28;88133;-64
2022/11/11 06:59:40;;;;;;;1.90;1.67;;;21.00;99.50;;;;;;6180434;28;89203;-64
2022/11/11 07:02:42;;;;;;;1.60;1.50;;;21.00;99.50;;;;;;6180756;28;90319;-63
2022/11/11 07:05:46;;;;;;;2.33;1.85;;;21.00;99.50;;;;;;6181321;28;88343;-64
2022/11/11 07:08:48;;;;;;;2.25;1.77;;;21.10;99.50;;;;;;6180770;28;88489;-64
2022/11/11 07:11:50;;;;;;;1.70;1.60;;;21.10;99.60;;;;;;6180876;28;88039;-64
2022/11/11 07:14:52;;;;;;;1.67;1.58;;;21.00;99.60;;;;;;6181350;28;89251;-63
2022/11/11 07:17:54;;;;;;;1.75;1.60;;;21.10;99.60;;;;;;6181130;28;89091;-64
2022/11/11 07:20:57;;;;;;;2.40;1.70;;;21.10;99.50;;;;;;6181554;28;89297;-64
2022/11/11 07:23:59;;;;;;;1.60;1.50;;;21.10;99.80;;;;;;6181470;28;88496;-64
2022/11/11 07:27:01;;;;;;;1.90;1.67;;;21.10;99.30;;;;;;6181488;28;89119;-64
2022/11/11 07:30:04;;;;;;;1.90;1.70;;;21.10;99.30;;;;;;6180645;28;89291;-63
2022/11/11 07:33:06;;;;;;;1.70;1.60;;;21.10;99.30;;;;;;6179582;28;90200;-64
2022/11/11 07:36:09;;;;;;;1.73;1.58;;;21.10;99.30;;;;;;6180755;28;89321;-64
2022/11/11 07:39:11;;;;;;;1.60;1.50;;;21.10;99.20;;;;;;6180577;28;89182;-64
2022/11/11 07:42:14;;;;;;;1.60;1.50;;;21.10;99.20;;;;;;6180513;28;89284;-64
2022/11/11 07:45:16;;;;;;;2.15;1.80;;;21.10;99.20;;;;;;6171840;28;89308;-64
2022/11/11 07:48:18;;;;;;;2.28;1.67;;;21.10;99.20;;;;;;6184530;28;89209;-64
2022/11/11 07:51:21;;;;;;;1.60;1.50;;;21.10;99.20;;;;;;6184870;28;89154;-64
2022/11/11 07:54:23;;;;;;;1.60;1.50;;;21.10;99.20;;;;;;6185811;28;89333;-63
2022/11/11 07:57:25;;;;;;;1.70;1.60;;;21.10;99.20;;;;;;6183382;28;89128;-64
2022/11/11 08:00:27;;;;;;;2.03;1.80;;;21.10;99.20;;;;;;6184617;28;89934;-63
2022/11/11 08:03:29;;;;;;;1.73;1.58;;;21.10;99.10;;;;;;6183732;28;90226;-63
2022/11/11 08:06:33;;;;;;;1.63;1.52;;;21.10;99.10;;;;;;6183839;28;89535;-64
2022/11/11 08:09:35;;;;;;;1.88;1.55;;;21.20;99.00;;;;;;6184495;28;89149;-64
2022/11/11 08:15:56;;;;;;;1.95;1.75;;;21.20;99.00;;;;;;6162267;28;87554;-63
2022/11/11 08:18:58;;;;;;;1.60;1.50;;;21.20;99.00;;;;;;6185056;28;87956;-63
2022/11/11 08:22:03;;;;;;;1.70;1.60;;;21.20;99.00;;;;;;6184266;28;89503;-64
2022/11/11 08:25:06;;;;;;;3.00;2.00;;;21.20;99.00;;;;;;6184545;28;88429;-66
2022/11/11 08:28:08;;;;;;;1.65;1.42;;;21.20;99.00;;;;;;6184979;28;89567;-66
2022/11/11 08:31:11;;;;;;;1.40;1.30;;;21.20;99.00;;;;;;6183767;28;89448;-66
2022/11/11 08:34:13;;;;;;;1.50;1.40;;;21.20;99.00;;;;;;6183707;28;90448;-66
2022/11/11 08:37:16;;;;;;;1.70;1.50;;;21.20;99.00;;;;;;6184191;28;89543;-66
2022/11/11 08:40:18;;;;;;;2.90;1.95;;;21.20;99.00;;;;;;6183314;28;89061;-66
2022/11/11 08:43:22;;;;;;;2.42;1.60;;;21.20;99.00;;;;;;6183839;28;89920;-66
2022/11/11 08:46:24;;;;;;;1.50;1.40;;;21.20;99.00;;;;;;6184733;28;89529;-66
2022/11/11 08:49:26;;;;;;;1.60;1.50;;;21.20;98.90;;;;;;6183172;28;88546;-66
2022/11/11 08:52:30;;;;;;;1.73;1.63;;;21.20;98.90;;;;;;6182762;28;89091;-66
2022/11/11 08:55:32;;;;;;;1.63;1.50;;;21.20;98.80;;;;;;6183959;28;87319;-66
2022/11/11 08:58:34;;;;;;;1.42;1.33;;;21.20;98.80;;;;;;6184544;28;88171;-66
2022/11/11 09:01:36;;;;;;;1.60;1.50;;;21.20;98.90;;;;;;6183549;28;89201;-66
2022/11/11 09:04:38;;;;;;;1.90;1.70;;;21.20;98.90;;;;;;6182953;28;90241;-66
2022/11/11 09:07:41;;;;;;;1.80;1.70;;;21.20;98.90;;;;;;6183661;28;89006;-66
2022/11/11 09:10:44;;;;;;;1.70;1.58;;;21.20;98.90;;;;;;6182910;28;88641;-66
2022/11/11 09:13:47;;;;;;;1.50;1.40;;;21.20;99.00;;;;;;6182589;28;88172;-64
2022/11/11 09:16:49;;;;;;;1.65;1.50;;;21.20;99.00;;;;;;6183120;28;89054;-63
2022/11/11 09:19:51;;;;;;;1.42;1.30;;;21.20;99.00;;;;;;6182686;28;88056;-64
2022/11/11 09:22:55;;;;;;;1.80;1.48;;;21.20;99.00;;;;;;6183855;28;89576;-64
2022/11/11 09:25:58;;;;;;;1.50;1.40;;;21.20;99.00;;;;;;6182255;28;88423;-64
2022/11/11 09:29:00;;;;;;;3.15;1.98;;;21.30;98.90;;;;;;6182237;28;89226;-63
2022/11/11 09:32:02;;;;;;;2.40;1.73;;;21.30;98.90;;;;;;6182587;28;89118;-64
2022/11/11 09:35:04;;;;;;;1.70;1.52;;;21.30;98.90;;;;;;6182842;28;90041;-64
2022/11/11 09:38:08;;;;;;;1.48;1.38;;;21.30;98.80;;;;;;6183482;28;89186;-64
2022/11/11 09:41:19;;;;;;;1.50;1.40;;;21.30;98.80;;;;;;6181931;28;88806;-64
2022/11/11 09:44:33;;;;;;;1.50;1.40;;;21.30;98.80;;;;;;6182307;28;89154;-64
2022/11/11 09:47:42;;;;;;;1.63;1.40;;;21.30;98.90;;;;;;6182416;28;89032;-63
2022/11/11 09:50:53;;;;;;;1.52;1.40;;;21.30;98.90;;;;;;6182966;28;89151;-63
2022/11/11 09:54:02;;;;;;;1.65;1.48;;;21.30;98.90;;;;;;6182811;28;89286;-64
2022/11/11 09:57:12;;;;;;;1.65;1.50;;;21.20;99.00;;;;;;6183210;28;88715;-64
2022/11/11 10:00:18;;;;;;;1.75;1.60;;;21.30;99.00;;;;;;6182156;28;90690;-64
2022/11/11 10:03:22;;;;;;;1.73;1.60;;;21.30;99.10;;;;;;6182510;28;89373;-63
2022/11/11 10:06:28;;;;;;;1.50;1.40;;;21.30;99.10;;;;;;6181616;28;90170;-64
2022/11/11 10:09:40;;;;;;;1.70;1.45;;;21.30;99.10;;;;;;6182325;28;89232;-64
2022/11/11 10:12:48;;;;;;;1.50;1.40;;;21.30;99.00;;;;;;6171293;28;88989;-64
2022/11/11 10:16:02;;;;;;;1.58;1.48;;;21.30;98.90;;;;;;6171758;28;89382;-63
2022/11/11 10:19:19;;;;;;;1.63;1.52;;;21.30;98.90;;;;;;6171169;28;89125;-64
2022/11/11 10:22:23;;;;;;;1.60;1.50;;;21.30;98.90;;;;;;6170772;28;89162;-64
2022/11/11 10:25:27;;;;;;;1.60;1.50;;;21.30;98.90;;;;;;6182028;28;89146;-64
2022/11/11 10:28:35;;;;;;;1.50;1.40;;;21.30;99.00;;;;;;6176344;28;88550;-64
2022/11/11 10:31:38;;;;;;;1.40;1.30;;;21.30;99.00;;;;;;6182087;28;89596;-63
2022/11/11 10:34:41;;;;;;;1.50;1.40;;;21.30;99.00;;;;;;6181412;28;89219;-64
2022/11/11 10:37:43;;;;;;;1.60;1.50;;;21.30;99.00;;;;;;6180815;28;89990;-64
2022/11/11 10:40:50;;;;;;;1.60;1.50;;;21.30;99.10;;;;;;6182020;28;89093;-64
2022/11/11 10:43:52;;;;;;;1.60;1.50;;;21.30;99.10;;;;;;6181354;28;88038;-64
2022/11/11 10:47:02;;;;;;;1.73;1.63;;;21.30;99.10;;;;;;6180659;28;89269;-64
2022/11/11 10:50:12;;;;;;;2.20;1.77;;;21.30;99.10;;;;;;6180760;28;89692;-64
2022/11/11 10:53:19;;;;;;;3.30;1.98;;;21.30;99.10;;;;;;6180104;28;89703;-64
2022/11/11 10:56:29;;;;;;;2.22;1.70;;;21.30;99.10;;;;;;6182121;28;89164;-64
2022/11/11 10:59:39;;;;;;;2.80;1.90;;;21.30;99.00;;;;;;6180514;28;88550;-64
2022/11/11 11:02:49;;;;;;;2.92;1.70;;;21.40;99.00;;;;;;6181506;28;89184;-64
2022/11/11 11:05:57;;;;;;;2.08;1.65;;;21.40;99.00;;;;;;6181428;28;89624;-64
2022/11/11 11:09:06;;;;;;;2.35;1.73;;;21.40;99.00;;;;;;6181051;28;90140;-64
2022/11/11 11:12:14;;;;;;;1.52;1.40;;;21.40;99.00;;;;;;6181440;28;88355;-64
2022/11/11 11:15:21;;;;;;;1.70;1.60;;;21.30;99.00;;;;;;6181567;28;89263;-64
2022/11/11 11:18:24;;;;;;;1.60;1.50;;;21.30;99.00;;;;;;6182472;28;89236;-63
2022/11/11 11:21:26;;;;;;;1.52;1.42;;;21.30;99.10;;;;;;6188223;28;89227;-64
2022/11/11 11:24:30;;;;;;;1.58;1.48;;;21.30;99.10;;;;;;6189433;28;88907;-64
2022/11/11 11:27:33;;;;;;;1.60;1.50;;;21.30;99.10;;;;;;6188820;28;89145;-64
2022/11/11 11:30:35;;;;;;;2.33;1.75;;;21.30;99.10;;;;;;6189941;28;88366;-64
2022/11/11 11:33:53;;;;;;;1.50;1.40;;;21.30;99.10;;;;;;6189699;28;89574;-64
2022/11/11 11:37:02;;;;;;;1.83;1.60;;;21.30;99.20;;;;;;6189054;28;89069;-64
2022/11/11 11:40:07;;;;;;;1.65;1.42;;;21.30;99.10;;;;;;6188109;28;90047;-63
2022/11/11 11:43:31;;;;;;;1.75;1.52;;;21.40;99.10;;;;;;6189897;28;89489;-64
2022/11/11 11:46:38;;;;;;;2.58;2.00;;;21.40;99.00;;;;;;6178372;28;87869;-64
2022/11/11 11:50:08;;;;;;;1.58;1.48;;;21.40;99.00;;;;;;6187731;28;89283;-64
2022/11/11 11:53:27;;;;;;;2.67;1.80;;;21.40;99.00;;;;;;6179219;28;89266;-64
2022/11/11 11:56:37;;;;;;;1.65;1.55;;;21.40;99.00;;;;;;6189364;28;89168;-64
2022/11/11 11:59:46;;;;;;;1.60;1.50;;;21.40;99.10;;;;;;6188249;28;89323;-64
2022/11/11 12:03:17;;;;;;;2.17;1.70;;;21.30;99.10;;;;;;6188920;28;89027;-64
2022/11/11 12:06:26;;;;;;;1.67;1.58;;;21.40;99.20;;;;;;6188956;28;89448;-64
2022/11/11 12:09:37;;;;;;;1.60;1.50;;;21.40;99.20;;;;;;6188659;28;89421;-64
2022/11/11 12:12:48;;;;;;;1.50;1.40;;;21.40;99.20;;;;;;6180566;28;91262;-64
2022/11/11 12:16:03;;;;;;;1.63;1.52;;;21.30;99.20;;;;;;6188439;28;89294;-64
2022/11/11 12:19:28;;;;;;;1.42;1.33;;;21.40;99.20;;;;;;6188494;28;89180;-67
2022/11/11 12:22:53;;;;;;;1.90;1.70;;;21.30;99.20;;;;;;6188525;28;89228;-67
2022/11/11 12:26:04;;;;;;;1.50;1.40;;;21.40;99.20;;;;;;6186294;28;90125;-66
2022/11/11 12:29:29;;;;;;;3.25;2.05;;;21.40;99.20;;;;;;6188848;28;89439;-66
2022/11/11 12:33:19;;;;;;;1.50;1.40;;;21.40;99.10;;;;;;6183426;28;89409;-64
2022/11/11 12:36:29;;;;;;;1.45;1.35;;;21.40;99.20;;;;;;6125933;28;88604;-64
2022/11/11 12:39:45;;;;;;;1.58;1.48;;;21.40;99.20;;;;;;6158208;28;89108;-63
2022/11/11 12:43:04;;;;;;;1.85;1.48;;;21.40;99.20;;;;;;6158739;28;89227;-64
2022/11/11 12:46:16;;;;;;;1.60;1.50;;;21.40;99.30;;;;;;6158342;28;89981;-64
2022/11/11 12:49:36;;;;;;;1.60;1.50;;;21.40;99.30;;;;;;6158980;28;89193;-64
2022/11/11 12:52:50;;;;;;;1.50;1.40;;;21.40;99.40;;;;;;6159503;28;89219;-64
2022/11/11 12:56:00;;;;;;;1.70;1.58;;;21.40;99.40;;;;;;6159090;28;89190;-64
2022/11/11 12:59:11;;;;;;;1.58;1.45;;;21.30;99.30;;;;;;6146820;28;91095;-64
2022/11/11 13:02:30;;;;;;;1.70;1.60;;;21.40;99.40;;;;;;6159208;28;89381;-64
2022/11/11 13:05:37;;;;;;;1.70;1.52;;;21.40;99.40;;;;;;6160213;28;89336;-64
2022/11/11 13:09:24;;;;;;;2.00;1.60;;;21.40;99.30;;;;;;6158961;28;88521;-64
2022/11/11 13:12:31;;;;;;;1.55;1.45;;;21.40;99.30;;;;;;6134577;28;89510;-64
2022/11/11 13:15:33;;;;;;;1.40;1.30;;;21.40;99.30;;;;;;6159108;28;89127;-64
2022/11/11 13:18:44;;;;;;;1.50;1.40;;;21.40;99.30;;;;;;6156710;28;90373;-64
2022/11/11 13:21:53;;;;;;;1.75;1.60;;;21.40;99.30;;;;;;6158514;28;89355;-64
2022/11/11 13:24:56;;;;;;;2.20;1.70;;;21.40;99.30;;;;;;6158394;28;89126;-64
2022/11/11 13:28:03;;;;;;;1.50;1.40;;;21.40;99.40;;;;;;6154006;28;89157;-63
2022/11/11 13:31:16;;;;;;;1.40;1.30;;;21.40;99.40;;;;;;6152146;28;89020;-64
2022/11/11 13:34:19;;;;;;;1.60;1.50;;;21.40;99.40;;;;;;6159864;28;88044;-64
2022/11/11 13:37:27;;;;;;;1.40;1.30;;;21.40;99.40;;;;;;6182781;28;87935;-63
2022/11/11 13:40:36;;;;;;;1.40;1.30;;;21.40;99.50;;;;;;6182963;28;88910;-64
2022/11/11 13:43:42;;;;;;;2.20;1.70;;;21.40;99.50;;;;;;6182156;28;89214;-64
2022/11/11 13:46:46;;;;;;;1.50;1.40;;;21.40;99.50;;;;;;6181805;28;89384;-64
2022/11/11 13:49:54;;;;;;;1.95;1.55;;;21.40;99.40;;;;;;6181816;28;90436;-64
2022/11/11 13:53:01;;;;;;;1.90;1.63;;;21.40;99.40;;;;;;6182322;28;89982;-64
2022/11/11 13:56:06;;;;;;;1.52;1.42;;;21.50;99.40;;;;;;6175146;28;89221;-64
2022/11/11 13:59:17;;;;;;;1.65;1.55;;;21.40;99.30;;;;;;6182233;28;89060;-64
2022/11/11 14:02:28;;;;;;;1.65;1.50;;;21.40;99.30;;;;;;6181329;28;88822;-64
2022/11/11 14:05:31;;;;;;;1.60;1.50;;;21.50;99.40;;;;;;6182496;28;89234;-64
2022/11/11 14:08:54;;;;;;;1.60;1.50;;;21.40;99.40;;;;;;6181689;28;89089;-63
2022/11/11 14:12:21;;;;;;;1.42;1.30;;;21.40;99.40;;;;;;6182865;28;87200;-64
2022/11/11 14:15:43;;;;;;;1.48;1.38;;;21.40;99.40;;;;;;6182101;28;89260;-64
2022/11/11 14:18:45;;;;;;;1.52;1.42;;;21.40;99.40;;;;;;6182469;28;89320;-63
2022/11/11 14:21:53;;;;;;;1.70;1.50;;;21.40;99.40;;;;;;6179947;28;90128;-64
2022/11/11 14:25:14;;;;;;;1.70;1.52;;;21.40;99.40;;;;;;6182121;28;89395;-64
2022/11/11 14:28:26;;;;;;;1.60;1.50;;;21.40;99.40;;;;;;6181741;28;89224;-64
2022/11/11 14:32:03;;;;;;;1.70;1.60;;;21.40;99.40;;;;;;6172824;28;89129;-64
2022/11/11 14:35:26;;;;;;;1.90;1.52;;;21.40;99.40;;;;;;6169775;28;88106;-64
2022/11/11 14:38:43;;;;;;;2.03;1.63;;;21.40;99.30;;;;;;6181591;28;89622;-64
2022/11/11 14:41:50;;;;;;;1.50;1.40;;;21.40;99.30;;;;;;6181546;28;89067;-64
2022/11/11 14:44:52;;;;;;;1.55;1.38;;;21.40;99.30;;;;;;6181840;28;88051;-64
2022/11/11 14:47:55;;;;;;;1.50;1.40;;;21.50;99.30;;;;;;6181863;28;89409;-64
2022/11/11 14:50:57;;;;;;;1.60;1.50;;;21.40;99.30;;;;;;6180959;28;89589;-64
2022/11/11 14:53:59;;;;;;;1.90;1.60;;;21.40;99.40;;;;;;6180021;28;90070;-64
2022/11/11 14:57:10;;;;;;;1.58;1.48;;;21.40;99.40;;;;;;6181430;28;89315;-64
2022/11/11 15:00:16;;;;;;;1.58;1.48;;;21.40;99.40;;;;;;6181134;28;89464;-64
2022/11/11 15:03:30;;;;;;;1.67;1.42;;;21.40;99.40;;;;;;6181515;28;89193;-64
2022/11/11 15:06:40;;;;;;;1.88;1.67;;;21.40;99.50;;;;;;6181634;28;89160;-64
2022/11/11 15:10:09;;;;;;;2.10;1.70;;;21.40;99.50;;;;;;6180597;28;89170;-64
2022/11/11 15:13:37;;;;;;;1.60;1.50;;;21.40;99.40;;;;;;6181003;28;89160;-64
2022/11/11 15:16:55;;;;;;;1.60;1.50;;;21.40;99.40;;;;;;6181692;28;87225;-64
2022/11/11 15:20:08;;;;;;;3.38;1.50;;;21.40;99.40;;;;;;6180502;28;89128;-64
2022/11/11 15:23:21;;;;;;;3.90;1.60;;;21.50;99.70;;;;;;6181250;28;89221;-64
2022/11/11 15:26:32;;;;;;;2.00;1.63;;;21.50;99.80;;;;;;6180237;28;90356;-64
2022/11/11 15:29:58;;;;;;;3.85;1.50;;;21.40;99.60;;;;;;6181661;28;89287;-64
2022/11/11 15:33:10;;;;;;;1.98;1.70;;;21.40;99.60;;;;;;6180215;28;89424;-64
2022/11/11 15:36:21;;;;;;;1.55;1.45;;;21.40;99.60;;;;;;6179889;28;89188;-64
2022/11/11 15:39:27;;;;;;;2.13;1.60;;;21.40;99.60;;;;;;6179367;28;89143;-64
2022/11/11 15:42:32;;;;;;;2.75;1.40;;;21.40;99.60;;;;;;6180265;28;89330;-64
2022/11/11 15:45:36;;;;;;;2.53;1.65;;;21.40;99.60;;;;;;6181117;28;89211;-64
2022/11/11 15:48:42;;;;;;;2.47;1.80;;;21.40;99.60;;;;;;6180606;28;88850;-64
2022/11/11 15:51:45;;;;;;;2.58;1.88;;;21.40;99.60;;;;;;6180812;28;89282;-64
2022/11/11 15:54:48;;;;;;;2.33;1.65;;;21.40;99.60;;;;;;6181281;28;89304;-64
2022/11/11 15:57:50;;;;;;;2.90;1.95;;;21.40;99.50;;;;;;6179537;28;90129;-64
2022/11/11 16:00:55;;;;;;;1.67;1.58;;;21.40;99.50;;;;;;6180859;28;89151;-63
2022/11/11 16:03:58;;;;;;;1.75;1.55;;;21.40;99.40;;;;;;6168653;28;88985;-64
2022/11/11 16:07:00;;;;;;;1.60;1.50;;;21.40;99.40;;;;;;6183239;28;89380;-64
2022/11/11 16:10:08;;;;;;;1.77;1.55;;;21.40;99.40;;;;;;6184191;28;89171;-64
2022/11/11 16:13:17;;;;;;;1.70;1.60;;;21.40;99.40;;;;;;6184818;28;88087;-64
2022/11/11 16:16:24;;;;;;;1.50;1.40;;;21.40;99.40;;;;;;6184364;28;90254;-64
2022/11/11 16:19:31;;;;;;;2.50;1.85;;;21.40;99.40;;;;;;6184216;28;88578;-66
2022/11/11 16:22:38;;;;;;;1.60;1.50;;;21.40;99.40;;;;;;6184683;28;89781;-64
2022/11/11 16:25:40;;;;;;;1.80;1.63;;;21.40;99.40;;;;;;6183943;28;88127;-64
2022/11/11 16:28:44;;;;;;;1.92;1.70;;;21.40;99.40;;;;;;6185100;28;90382;-64
2022/11/11 16:31:48;;;;;;;2.40;1.73;;;21.40;99.40;;;;;;6183505;28;89236;-64
2022/11/11 16:34:52;;;;;;;1.83;1.70;;;21.40;99.40;;;;;;6184184;28;89168;-64
2022/11/11 16:37:55;;;;;;;2.58;1.70;;;21.40;99.50;;;;;;6183935;28;89128;-63
2022/11/11 16:40:57;;;;;;;2.00;1.63;;;21.30;99.40;;;;;;6184566;28;89148;-63
2022/11/11 16:44:00;;;;;;;1.70;1.60;;;21.30;99.50;;;;;;6184556;28;89335;-64
2022/11/11 16:47:05;;;;;;;1.60;1.50;;;21.30;99.50;;;;;;6183938;28;89152;-66
2022/11/11 16:50:10;;;;;;;2.45;1.65;;;21.30;99.50;;;;;;6184127;28;88423;-66
2022/11/11 16:53:25;;;;;;;2.38;1.70;;;21.30;99.50;;;;;;6182997;28;89062;-66
2022/11/11 16:56:30;;;;;;;2.05;1.73;;;21.30;99.50;;;;;;6183445;28;89453;-66
2022/11/11 16:59:39;;;;;;;2.10;1.90;;;21.30;99.50;;;;;;6182771;28;90375;-66
2022/11/11 17:02:43;;;;;;;3.42;1.88;;;21.30;99.50;;;;;;6183537;28;89842;-65
2022/11/11 17:05:54;;;;;;;2.13;1.92;;;21.30;99.50;;;;;;6184202;28;88015;-66
2022/11/11 17:08:56;;;;;;;1.90;1.70;;;21.30;99.50;;;;;;6184371;28;89144;-66
2022/11/11 17:11:58;;;;;;;1.70;1.60;;;21.30;99.50;;;;;;6182321;28;89240;-66
2022/11/11 17:15:00;;;;;;;1.95;1.75;;;21.30;99.50;;;;;;6182910;28;88109;-66
2022/11/11 17:18:04;;;;;;;1.90;1.80;;;21.30;99.90;;;;;;6183015;28;87032;-66
2022/11/11 17:21:07;;;;;;;3.00;2.05;;;21.30;99.50;;;;;;6182917;28;88541;-66
2022/11/11 17:24:13;;;;;;;2.08;1.80;;;21.30;99.40;;;;;;6183612;28;88098;-66
2022/11/11 17:27:15;;;;;;;1.63;1.52;;;21.30;99.30;;;;;;6183058;28;88844;-66